Time;durP1;ratioP1;P1;durP2;ratioP2;P2;SDS_P1;SDS_P2;PMS_P1;PMS_P2;Temp;Humidity;BMP_temperature;BMP_pressure;BME280_temperature;BME280_humidity;BME280_pressure;Samples;Min_cycle;Max_cycle;Signal;HPM_P1;HPM_P2
2022/05/19 00:00:23;;;;;;;2.53;2.30;;;;;;;;;;5019510;28;20230;-64
2022/05/19 00:02:50;;;;;;;5.07;2.50;;;;;;;;;;5022821;28;20614;-65
2022/05/19 00:05:18;;;;;;;3.50;2.30;;;;;;;;;;5013418;28;20199;-65
2022/05/19 00:07:45;;;;;;;3.50;2.70;;;;;;;;;;5034885;28;20254;-65
2022/05/19 00:10:12;;;;;;;2.60;2.37;;;;;;;;;;5015566;28;20700;-65
2022/05/19 00:12:40;;;;;;;3.58;2.60;;;;;;;;;;5022420;28;20212;-65
2022/05/19 00:15:08;;;;;;;5.57;2.77;;;;;;;;;;5021735;28;20313;-64
2022/05/19 00:17:35;;;;;;;4.23;2.73;;;;;;;;;;5024690;28;20205;-64
2022/05/19 00:20:03;;;;;;;3.03;2.37;;;;;;;;;;5014070;28;20280;-65
2022/05/19 00:22:31;;;;;;;2.80;2.47;;;;;;;;;;5016264;28;20209;-65
2022/05/19 00:24:58;;;;;;;5.13;2.70;;;;;;;;;;5013215;28;20214;-65
2022/05/19 00:27:25;;;;;;;3.97;2.63;;;;;;;;;;5026883;28;20605;-65
2022/05/19 00:29:53;;;;;;;3.77;2.30;;;;;;;;;;5017220;28;20271;-64
2022/05/19 00:32:20;;;;;;;3.37;2.80;;;;;;;;;;5014719;28;20210;-64
2022/05/19 00:34:47;;;;;;;4.43;2.90;;;;;;;;;;5026089;28;20723;-64
2022/05/19 00:37:15;;;;;;;2.67;2.47;;;;;;;;;;5017005;28;20267;-64
2022/05/19 00:39:42;;;;;;;4.73;2.67;;;;;;;;;;5021972;28;20226;-64
2022/05/19 00:45:04;;;;;;;3.93;2.70;;;;;;;;;;5029742;28;20218;-65
2022/05/19 00:47:36;;;;;;;3.87;2.50;;;;;;;;;;5045374;28;20206;-63
2022/05/19 00:50:04;;;;;;;3.63;2.53;;;;;;;;;;5016742;28;20288;-65
2022/05/19 00:52:34;;;;;;;4.23;2.30;;;;;;;;;;5021871;28;20668;-65
2022/05/19 00:55:06;;;;;;;3.53;2.60;;;;;;;;;;5015209;28;20230;-65
2022/05/19 00:57:36;;;;;;;3.07;2.83;;;;;;;;;;5012101;28;20225;-65
2022/05/19 01:00:08;;;;;;;3.27;2.93;;;;;;;;;;5015460;28;20264;-65
2022/05/19 01:02:41;;;;;;;2.93;2.63;;;;;;;;;;5030640;28;20210;-64
2022/05/19 01:05:21;;;;;;;3.33;2.90;;;;;;;;;;5013584;28;20772;-64
2022/05/19 01:07:49;;;;;;;3.47;2.90;;;;;;;;;;5014712;28;20210;-64
2022/05/19 01:10:16;;;;;;;3.97;2.80;;;;;;;;;;5041197;28;20234;-64
2022/05/19 01:12:46;;;;;;;5.17;2.53;;;;;;;;;;5016118;28;20259;-64
2022/05/19 01:15:14;;;;;;;3.87;2.53;;;;;;;;;;5021119;28;20226;-65
2022/05/19 01:17:41;;;;;;;3.00;2.67;;;;;;;;;;5020641;28;20202;-64
2022/05/19 01:20:13;;;;;;;3.20;2.90;;;;;;;;;;5020885;28;20613;-65
2022/05/19 01:22:55;;;;;;;3.30;2.83;;;;;;;;;;5016788;28;20419;-65
2022/05/19 01:25:28;;;;;;;3.17;2.87;;;;;;;;;;5016877;28;21534;-64
2022/05/19 01:27:55;;;;;;;4.40;2.90;;;;;;;;;;5023017;28;20210;-64
2022/05/19 01:30:23;;;;;;;4.73;3.67;;;;;;;;;;5016245;28;20236;-64
2022/05/19 01:32:57;;;;;;;3.97;3.37;;;;;;;;;;5017692;28;20217;-64
2022/05/19 01:35:25;;;;;;;4.03;3.43;;;;;;;;;;5018942;28;20911;-64
2022/05/19 01:37:53;;;;;;;5.87;3.77;;;;;;;;;;5019825;28;20198;-64
2022/05/19 01:40:39;;;;;;;6.20;4.80;;;;;;;;;;5035561;28;20219;-65
2022/05/19 01:43:13;;;;;;;7.23;5.27;;;;;;;;;;5014956;28;20209;-65
2022/05/19 01:45:46;;;;;;;6.27;4.80;;;;;;;;;;5010893;28;20230;-65
2022/05/19 01:48:20;;;;;;;8.33;5.80;;;;;;;;;;5012998;28;20213;-65
2022/05/19 01:50:50;;;;;;;5.70;4.50;;;;;;;;;;5023989;28;20214;-64
2022/05/19 01:53:26;;;;;;;4.73;3.30;;;;;;;;;;5017467;28;20203;-64
2022/05/19 01:56:17;;;;;;;3.77;3.47;;;;;;;;;;5023846;28;20244;-64
2022/05/19 01:58:56;;;;;;;5.67;3.23;;;;;;;;;;4992668;28;20312;-65
2022/05/19 02:01:26;;;;;;;3.80;2.90;;;;;;;;;;5025558;28;20202;-64
2022/05/19 02:03:58;;;;;;;4.07;3.20;;;;;;;;;;5021772;28;20203;-64
2022/05/19 02:06:27;;;;;;;6.87;3.40;;;;;;;;;;5028298;28;20210;-65
2022/05/19 02:08:57;;;;;;;3.83;3.03;;;;;;;;;;5016577;28;20227;-63
2022/05/19 02:11:29;;;;;;;3.70;3.30;;;;;;;;;;5021490;28;20275;-64
2022/05/19 02:13:58;;;;;;;4.37;3.03;;;;;;;;;;5018949;28;20217;-63
2022/05/19 02:16:26;;;;;;;4.50;3.47;;;;;;;;;;5019025;28;20229;-64
2022/05/19 02:18:53;;;;;;;5.43;3.50;;;;;;;;;;5021271;28;20718;-65
2022/05/19 02:21:21;;;;;;;3.50;3.20;;;;;;;;;;5021500;28;20723;-65
2022/05/19 02:23:48;;;;;;;3.77;3.30;;;;;;;;;;5020666;28;20217;-65
2022/05/19 02:26:16;;;;;;;3.97;3.43;;;;;;;;;;5015891;28;20210;-65
2022/05/19 02:28:56;;;;;;;4.83;3.23;;;;;;;;;;5011894;28;20257;-65
2022/05/19 02:31:23;;;;;;;4.37;3.20;;;;;;;;;;5013153;28;20236;-65
2022/05/19 02:33:50;;;;;;;3.53;3.23;;;;;;;;;;5039157;28;20204;-64
2022/05/19 02:36:21;;;;;;;4.20;3.13;;;;;;;;;;5025786;28;20222;-64
2022/05/19 02:38:48;;;;;;;4.03;3.23;;;;;;;;;;5015383;28;21102;-64
2022/05/19 02:41:16;;;;;;;4.23;3.50;;;;;;;;;;5017083;28;20232;-64
2022/05/19 02:43:43;;;;;;;4.97;3.57;;;;;;;;;;5023186;28;20206;-64
2022/05/19 02:46:11;;;;;;;4.53;3.37;;;;;;;;;;5026024;28;20206;-65
2022/05/19 02:48:38;;;;;;;8.60;3.30;;;;;;;;;;5020133;28;20250;-65
2022/05/19 02:51:06;;;;;;;5.00;3.50;;;;;;;;;;5020733;28;20224;-65
2022/05/19 02:53:33;;;;;;;3.77;3.20;;;;;;;;;;5013323;28;20233;-65
2022/05/19 02:56:01;;;;;;;3.57;3.20;;;;;;;;;;5019853;28;20218;-65
2022/05/19 02:58:28;;;;;;;3.97;3.33;;;;;;;;;;5021502;28;20226;-65
2022/05/19 03:00:55;;;;;;;5.03;3.70;;;;;;;;;;5019531;28;20253;-65
2022/05/19 03:03:23;;;;;;;4.90;3.80;;;;;;;;;;5022401;28;20289;-65
2022/05/19 03:05:51;;;;;;;4.07;3.57;;;;;;;;;;5034094;28;20210;-65
2022/05/19 03:08:18;;;;;;;3.70;3.40;;;;;;;;;;5018193;28;21239;-65
2022/05/19 03:10:46;;;;;;;6.27;3.67;;;;;;;;;;5019276;28;20222;-65
2022/05/19 03:13:21;;;;;;;3.87;3.57;;;;;;;;;;5017887;28;20225;-65
2022/05/19 03:15:48;;;;;;;4.47;3.50;;;;;;;;;;5041713;28;20643;-64
2022/05/19 03:18:16;;;;;;;4.40;3.43;;;;;;;;;;5020231;28;20211;-64
2022/05/19 03:20:43;;;;;;;3.77;3.43;;;;;;;;;;5016468;28;20614;-66
2022/05/19 03:23:11;;;;;;;5.00;3.50;;;;;;;;;;5017016;28;20206;-63
2022/05/19 03:25:39;;;;;;;3.27;3.07;;;;;;;;;;5015482;28;20202;-63
2022/05/19 03:28:06;;;;;;;3.60;3.30;;;;;;;;;;5022461;28;20206;-65
2022/05/19 03:30:35;;;;;;;3.73;3.13;;;;;;;;;;5019732;28;20217;-64
2022/05/19 03:33:03;;;;;;;4.30;3.30;;;;;;;;;;5021097;28;20210;-63
2022/05/19 03:35:30;;;;;;;5.30;3.33;;;;;;;;;;5023397;28;20248;-63
2022/05/19 03:37:58;;;;;;;3.87;3.47;;;;;;;;;;5024837;28;20202;-65
2022/05/19 03:40:30;;;;;;;4.10;3.70;;;;;;;;;;5022634;28;20787;-65
2022/05/19 03:42:57;;;;;;;3.63;3.33;;;;;;;;;;5022770;28;20210;-65
2022/05/19 03:45:25;;;;;;;5.63;3.73;;;;;;;;;;5024729;28;20659;-65
2022/05/19 03:47:53;;;;;;;5.00;3.63;;;;;;;;;;5027295;28;20213;-64
2022/05/19 03:50:20;;;;;;;3.97;3.67;;;;;;;;;;5022567;28;20233;-64
2022/05/19 03:52:47;;;;;;;5.67;3.53;;;;;;;;;;5019976;28;20205;-64
2022/05/19 03:55:15;;;;;;;3.23;2.93;;;;;;;;;;5033402;28;21891;-65
2022/05/19 03:57:43;;;;;;;3.40;3.10;;;;;;;;;;5020500;28;20198;-63
2022/05/19 04:00:11;;;;;;;3.97;3.37;;;;;;;;;;5023160;28;20222;-64
2022/05/19 04:02:38;;;;;;;3.90;3.60;;;;;;;;;;5023618;28;20639;-64
2022/05/19 04:05:07;;;;;;;4.53;3.40;;;;;;;;;;5022145;28;20215;-64
2022/05/19 04:07:34;;;;;;;4.13;3.43;;;;;;;;;;5036827;28;20202;-64
2022/05/19 04:10:02;;;;;;;3.70;3.40;;;;;;;;;;5026225;28;20230;-64
2022/05/19 04:12:29;;;;;;;3.27;3.07;;;;;;;;;;5015931;28;20202;-64
2022/05/19 04:14:56;;;;;;;4.67;3.77;;;;;;;;;;5023087;28;20241;-66
2022/05/19 04:17:33;;;;;;;4.33;3.53;;;;;;;;;;5024939;28;20262;-64
2022/05/19 04:20:01;;;;;;;7.67;3.60;;;;;;;;;;5022671;28;20649;-65
2022/05/19 04:22:28;;;;;;;4.87;3.07;;;;;;;;;;5022666;28;20791;-64
2022/05/19 04:24:55;;;;;;;3.73;3.40;;;;;;;;;;5013690;28;20206;-65
2022/05/19 04:27:23;;;;;;;3.37;3.10;;;;;;;;;;5017764;28;20301;-64
2022/05/19 04:29:51;;;;;;;4.17;3.20;;;;;;;;;;5015353;28;20229;-65
2022/05/19 04:32:18;;;;;;;4.13;3.70;;;;;;;;;;5025260;28;20436;-64
2022/05/19 04:34:46;;;;;;;4.83;3.40;;;;;;;;;;5022978;28;20264;-65
2022/05/19 04:37:14;;;;;;;3.77;3.30;;;;;;;;;;5018284;28;20293;-64
2022/05/19 04:39:41;;;;;;;4.50;3.33;;;;;;;;;;5016340;28;20253;-64
2022/05/19 04:42:09;;;;;;;6.93;3.97;;;;;;;;;;5024585;28;20733;-65
2022/05/19 04:44:37;;;;;;;4.37;3.57;;;;;;;;;;5018910;28;20203;-65
2022/05/19 04:47:05;;;;;;;4.07;3.23;;;;;;;;;;5040874;28;20267;-64
2022/05/19 04:49:33;;;;;;;3.90;3.40;;;;;;;;;;5018690;28;20279;-64
2022/05/19 04:52:00;;;;;;;3.37;3.13;;;;;;;;;;5017611;28;20587;-64
2022/05/19 04:54:28;;;;;;;5.00;3.27;;;;;;;;;;5039689;28;20567;-64
2022/05/19 04:56:55;;;;;;;3.67;3.37;;;;;;;;;;5016663;28;20283;-65
2022/05/19 04:59:23;;;;;;;6.03;3.23;;;;;;;;;;5014582;28;20230;-65
2022/05/19 05:01:50;;;;;;;3.80;3.50;;;;;;;;;;5025002;28;20255;-65
2022/05/19 05:04:19;;;;;;;3.27;2.97;;;;;;;;;;5016610;28;20216;-65
2022/05/19 05:06:46;;;;;;;4.20;3.57;;;;;;;;;;5024183;28;20222;-65
2022/05/19 05:09:14;;;;;;;3.80;3.17;;;;;;;;;;5017220;28;20230;-65
2022/05/19 05:11:41;;;;;;;7.40;3.17;;;;;;;;;;5012178;28;20321;-65
2022/05/19 05:14:09;;;;;;;4.00;3.20;;;;;;;;;;5017945;28;20261;-66
2022/05/19 05:16:36;;;;;;;4.83;3.63;;;;;;;;;;5022605;28;20242;-65
2022/05/19 05:19:05;;;;;;;6.53;3.40;;;;;;;;;;5025309;28;20281;-65
2022/05/19 05:21:33;;;;;;;3.37;3.00;;;;;;;;;;5020721;28;20210;-64
2022/05/19 05:24:00;;;;;;;3.30;3.00;;;;;;;;;;5029546;28;20236;-65
2022/05/19 05:26:27;;;;;;;3.47;2.80;;;;;;;;;;5029020;28;20219;-64
2022/05/19 05:28:55;;;;;;;6.38;2.88;;;;;;;;;;5031530;28;20226;-66
2022/05/19 05:31:22;;;;;;;3.35;2.55;;;;;;;;;;5011617;28;20206;-66
2022/05/19 05:33:50;;;;;;;4.72;2.47;;;;;;;;;;5022530;28;20202;-66
2022/05/19 05:36:17;;;;;;;3.05;2.30;;;;;;;;;;5029246;28;20225;-65
2022/05/19 05:38:45;;;;;;;3.35;2.30;;;;;;;;;;5018034;28;20608;-65
2022/05/19 05:41:13;;;;;;;3.08;2.10;;;;;;;;;;5020383;28;20674;-65
2022/05/19 05:43:41;;;;;;;2.55;2.20;;;;;;;;;;5023880;28;20253;-65
2022/05/19 05:46:10;;;;;;;3.00;2.08;;;;;;;;;;5022161;28;20205;-66
2022/05/19 05:48:37;;;;;;;3.25;2.33;;;;;;;;;;5023539;28;20240;-65
2022/05/19 05:51:06;;;;;;;3.00;2.05;;;;;;;;;;5023869;28;20277;-66
2022/05/19 05:53:33;;;;;;;4.38;2.40;;;;;;;;;;5031446;28;20284;-66
2022/05/19 05:56:01;;;;;;;4.20;2.00;;;;;;;;;;5039102;28;20237;-65
2022/05/19 05:58:28;;;;;;;4.90;1.90;;;;;;;;;;5023213;28;20280;-65
2022/05/19 06:00:56;;;;;;;2.42;2.03;;;;;;;;;;5049205;28;20268;-65
2022/05/19 06:03:23;;;;;;;2.60;1.77;;;;;;;;;;5021878;28;20233;-65
2022/05/19 06:05:51;;;;;;;3.42;2.00;;;;;;;;;;5022992;28;20621;-66
2022/05/19 06:08:18;;;;;;;2.72;2.28;;;;;;;;;;5021450;28;20225;-66
2022/05/19 06:10:46;;;;;;;2.35;2.15;;;;;;;;;;5023570;28;20224;-66
2022/05/19 06:13:15;;;;;;;5.28;2.13;;;;;;;;;;5023956;28;20210;-66
2022/05/19 06:15:43;;;;;;;3.08;2.35;;;;;;;;;;5020429;28;20230;-66
2022/05/19 06:18:11;;;;;;;2.38;2.17;;;;;;;;;;5030629;28;20203;-65
2022/05/19 06:20:38;;;;;;;2.50;2.30;;;;;;;;;;5019757;28;20206;-67
2022/05/19 06:23:06;;;;;;;4.53;2.25;;;;;;;;;;5020454;28;20683;-64
2022/05/19 06:25:35;;;;;;;2.53;2.33;;;;;;;;;;5038379;28;20206;-66
2022/05/19 06:28:03;;;;;;;3.13;2.53;;;;;;;;;;5035764;28;20214;-65
2022/05/19 06:30:31;;;;;;;2.95;2.53;;;;;;;;;;5015158;28;20391;-65
2022/05/19 06:32:59;;;;;;;3.00;2.63;;;;;;;;;;5023593;28;20614;-65
2022/05/19 06:35:28;;;;;;;3.90;2.47;;;;;;;;;;5014944;28;20214;-65
2022/05/19 06:37:56;;;;;;;4.03;2.40;;;;;;;;;;5017969;28;20209;-65
2022/05/19 06:40:25;;;;;;;6.00;2.40;;;;;;;;;;5016159;28;20229;-65
2022/05/19 06:42:53;;;;;;;6.45;2.80;;;;;;;;;;5017446;28;20207;-67
2022/05/19 06:45:22;;;;;;;4.95;2.97;;;;;;;;;;5018498;28;20289;-65
2022/05/19 06:47:50;;;;;;;3.33;2.50;;;;;;;;;;5022574;28;20259;-66
2022/05/19 06:50:18;;;;;;;5.68;2.40;;;;;;;;;;5020414;28;20234;-66
2022/05/19 06:52:53;;;;;;;6.32;2.88;;;;;;;;;;5039632;28;20202;-66
2022/05/19 06:55:21;;;;;;;4.53;2.90;;;;;;;;;;5020422;28;20263;-66
2022/05/19 06:57:49;;;;;;;9.00;2.60;;;;;;;;;;5022295;28;20719;-66
2022/05/19 07:00:18;;;;;;;6.32;2.72;;;;;;;;;;5027377;28;20230;-65
2022/05/19 07:02:50;;;;;;;4.28;3.13;;;;;;;;;;5016756;28;20600;-66
2022/05/19 07:05:18;;;;;;;5.25;2.92;;;;;;;;;;5025414;28;20301;-65
2022/05/19 07:07:50;;;;;;;5.63;2.78;;;;;;;;;;5022852;28;20202;-66
2022/05/19 07:10:21;;;;;;;3.72;2.72;;;;;;;;;;5019179;28;20730;-65
2022/05/19 07:12:49;;;;;;;6.97;2.83;;;;;;;;;;5024596;28;20209;-65
2022/05/19 07:15:19;;;;;;;6.22;2.88;;;;;;;;;;5024660;28;20263;-67
2022/05/19 07:17:47;;;;;;;4.95;2.80;;;;;;;;;;5011017;28;20708;-66
2022/05/19 07:23:01;;;;;;;5.60;3.03;;;;;;;;;;5029915;28;20199;-65
2022/05/19 07:25:28;;;;;;;3.90;2.90;;;;;;;;;;5007718;28;20240;-65
2022/05/19 07:27:56;;;;;;;3.35;2.65;;;;;;;;;;5026395;28;20247;-66
2022/05/19 07:30:23;;;;;;;4.00;2.88;;;;;;;;;;5010274;28;23089;-66
2022/05/19 07:32:53;;;;;;;5.32;2.65;;;;;;;;;;5008492;28;20210;-66
2022/05/19 07:35:21;;;;;;;2.50;2.30;;;;;;;;;;5005752;28;20213;-66
2022/05/19 07:37:48;;;;;;;3.20;2.47;;;;;;;;;;5027109;28;20271;-64
2022/05/19 07:40:16;;;;;;;3.08;2.83;;;;;;;;;;5018723;28;20222;-67
2022/05/19 07:42:43;;;;;;;3.28;2.50;;;;;;;;;;5025638;28;20207;-66
2022/05/19 07:45:11;;;;;;;3.72;2.67;;;;;;;;;;5025871;28;20648;-66
2022/05/19 07:47:42;;;;;;;2.45;2.25;;;;;;;;;;5023642;28;20210;-66
2022/05/19 07:50:10;;;;;;;4.25;2.55;;;;;;;;;;5017540;28;20274;-67
2022/05/19 07:52:41;;;;;;;3.58;2.55;;;;;;;;;;5030748;28;20217;-66
2022/05/19 07:55:09;;;;;;;3.50;2.88;;;;;;;;;;5024987;28;20210;-67
2022/05/19 07:57:38;;;;;;;3.78;2.55;;;;;;;;;;5031287;28;20327;-66
2022/05/19 08:00:06;;;;;;;3.00;2.70;;;;;;;;;;5024383;28;20223;-66
2022/05/19 08:02:34;;;;;;;5.97;2.80;;;;;;;;;;5028214;28;20203;-66
2022/05/19 08:05:01;;;;;;;3.10;2.80;;;;;;;;;;5030654;28;20730;-65
2022/05/19 08:07:28;;;;;;;4.55;2.97;;;;;;;;;;5020682;28;20451;-66
2022/05/19 08:15:37;;;;;;;6.38;2.70;;;;;;;;;;5038695;28;20268;-67
2022/05/19 08:18:11;;;;;;;3.25;2.97;;;;;;;;;;5027264;28;20550;-66
2022/05/19 08:20:40;;;;;;;2.72;2.50;;;;;;;;;;5022546;28;20680;-66
2022/05/19 08:23:09;;;;;;;5.18;2.88;;;;;;;;;;5017096;28;20269;-66
2022/05/19 08:25:39;;;;;;;4.28;2.70;;;;;;;;;;5022968;28;20208;-66
2022/05/19 08:28:07;;;;;;;3.20;2.55;;;;;;;;;;5023922;28;20203;-65
2022/05/19 08:30:34;;;;;;;3.20;2.92;;;;;;;;;;5018339;28;20220;-65
2022/05/19 08:33:04;;;;;;;4.97;2.88;;;;;;;;;;5025573;28;20214;-65
2022/05/19 08:35:32;;;;;;;3.53;2.53;;;;;;;;;;5024480;28;20260;-65
2022/05/19 08:38:01;;;;;;;3.25;2.60;;;;;;;;;;5016228;28;20230;-67
2022/05/19 08:40:33;;;;;;;4.20;2.78;;;;;;;;;;5022608;28;20230;-68
2022/05/19 08:43:01;;;;;;;4.10;2.90;;;;;;;;;;5021745;28;20215;-65
2022/05/19 08:45:55;;;;;;;5.13;2.97;;;;;;;;;;5018142;28;20296;-65
2022/05/19 08:48:24;;;;;;;4.28;3.13;;;;;;;;;;5019203;28;20206;-67
2022/05/19 08:51:03;;;;;;;2.63;2.42;;;;;;;;;;5022035;28;20236;-64
2022/05/19 08:53:41;;;;;;;2.88;2.67;;;;;;;;;;5022748;28;20213;-65
2022/05/19 08:56:12;;;;;;;4.13;2.80;;;;;;;;;;5020253;28;20699;-65
2022/05/19 08:58:42;;;;;;;3.20;2.90;;;;;;;;;;5013218;28;20229;-65
2022/05/19 09:01:26;;;;;;;4.38;2.60;;;;;;;;;;5024039;28;20210;-67
2022/05/19 09:04:00;;;;;;;3.97;2.85;;;;;;;;;;5022123;28;20228;-66
2022/05/19 09:09:38;;;;;;;4.55;2.78;;;;;;;;;;5045236;28;20620;-66
2022/05/19 09:12:08;;;;;;;4.05;2.67;;;;;;;;;;5023409;28;20209;-66
2022/05/19 09:14:36;;;;;;;3.67;2.70;;;;;;;;;;5022831;28;20216;-65
2022/05/19 09:17:07;;;;;;;6.03;2.70;;;;;;;;;;5028272;28;20234;-65
2022/05/19 09:19:49;;;;;;;3.40;2.70;;;;;;;;;;5021574;28;20226;-66
2022/05/19 09:22:25;;;;;;;4.57;2.70;;;;;;;;;;5030168;28;20207;-66
2022/05/19 09:24:53;;;;;;;4.88;2.95;;;;;;;;;;5031195;28;20633;-65
2022/05/19 09:27:22;;;;;;;2.97;2.60;;;;;;;;;;5028919;28;20288;-65
2022/05/19 09:29:55;;;;;;;2.85;2.60;;;;;;;;;;5029420;28;20308;-66
2022/05/19 09:32:34;;;;;;;4.95;2.53;;;;;;;;;;5030693;28;20937;-66
2022/05/19 09:35:05;;;;;;;4.30;2.63;;;;;;;;;;5022446;28;20206;-64
2022/05/19 09:37:44;;;;;;;3.15;2.40;;;;;;;;;;5030826;28;20230;-65
2022/05/19 09:40:12;;;;;;;4.50;2.92;;;;;;;;;;5025495;28;20717;-66
2022/05/19 09:43:12;;;;;;;2.63;2.35;;;;;;;;;;5026627;28;20273;-66
2022/05/19 09:45:44;;;;;;;3.75;2.42;;;;;;;;;;5029588;28;20198;-65
2022/05/19 09:48:12;;;;;;;4.70;2.65;;;;;;;;;;5021846;28;20213;-65
2022/05/19 09:50:44;;;;;;;4.30;2.50;;;;;;;;;;5022820;28;20238;-65
2022/05/19 09:53:17;;;;;;;4.60;2.67;;;;;;;;;;5017963;28;20307;-66
2022/05/19 09:55:44;;;;;;;2.65;2.45;;;;;;;;;;5022410;28;20178;-67
2022/05/19 09:58:15;;;;;;;3.60;2.63;;;;;;;;;;5028881;28;20283;-66
2022/05/19 10:00:44;;;;;;;4.55;2.40;;;;;;;;;;5024281;28;20202;-64
2022/05/19 10:03:18;;;;;;;4.75;2.53;;;;;;;;;;5021331;28;20569;-67
2022/05/19 10:05:48;;;;;;;3.17;2.53;;;;;;;;;;5027840;28;20213;-66
2022/05/19 10:08:21;;;;;;;5.20;2.50;;;;;;;;;;5015467;28;20210;-65
2022/05/19 10:10:55;;;;;;;4.57;2.70;;;;;;;;;;5018950;28;20668;-65
2022/05/19 10:13:27;;;;;;;3.65;2.60;;;;;;;;;;5019351;28;20264;-65
2022/05/19 10:15:57;;;;;;;3.15;2.63;;;;;;;;;;5022125;28;20232;-65
2022/05/19 10:18:49;;;;;;;3.45;2.25;;;;;;;;;;5015727;28;20215;-65
2022/05/19 10:21:35;;;;;;;3.42;2.50;;;;;;;;;;5020172;28;20198;-66
2022/05/19 10:24:10;;;;;;;3.45;2.30;;;;;;;;;;5015502;28;20198;-64
2022/05/19 10:31:02;;;;;;;3.70;2.47;;;;;;;;;;5024940;28;20279;-66
2022/05/19 10:32:42;;;;;;;2.95;2.45;;;;;;;;;;5036978;28;20210;-66
2022/05/19 10:35:10;;;;;;;4.47;2.80;;;;;;;;;;5021925;28;20751;-64
2022/05/19 10:40:19;;;;;;;3.97;2.65;;;;;;;;;;5005334;23;20246;-67
2022/05/19 10:42:50;;;;;;;2.63;2.40;;;;;;;;;;4986703;28;20219;-71
2022/05/19 10:45:28;;;;;;;2.65;2.45;;;;;;;;;;4992873;28;20261;-67
2022/05/19 10:47:56;;;;;;;7.10;3.78;;;;;;;;;;4994606;28;20202;-67
2022/05/19 10:50:35;;;;;;;6.13;2.90;;;;;;;;;;4974180;28;20317;-67
2022/05/19 10:53:09;;;;;;;3.40;2.40;;;;;;;;;;4981838;28;21023;-67
2022/05/19 10:55:55;;;;;;;2.58;2.38;;;;;;;;;;4966236;28;20220;-67
2022/05/19 10:58:42;;;;;;;3.67;2.05;;;;;;;;;;4999748;28;20233;-67
2022/05/19 11:01:12;;;;;;;3.67;2.47;;;;;;;;;;5001095;28;20565;-67
2022/05/19 11:03:40;;;;;;;5.03;2.20;;;;;;;;;;5006107;28;20218;-67
2022/05/19 11:06:24;;;;;;;5.13;2.13;;;;;;;;;;4986525;28;20699;-67
2022/05/19 11:09:15;;;;;;;2.42;2.22;;;;;;;;;;4974893;28;20310;-67
2022/05/19 11:11:53;;;;;;;3.53;2.42;;;;;;;;;;4999151;28;20199;-67
2022/05/19 11:14:40;;;;;;;6.35;3.03;;;;;;;;;;4985067;28;20912;-67
2022/05/19 11:17:27;;;;;;;7.82;4.18;;;;;;;;;;4986976;28;20235;-65
2022/05/19 11:20:00;;;;;;;6.75;3.08;;;;;;;;;;4954716;28;20832;-67
2022/05/19 11:22:31;;;;;;;3.97;3.00;;;;;;;;;;4991130;28;20200;-66
2022/05/19 11:27:53;;;;;;;4.32;2.50;;;;;;;;;;5008621;28;20591;-66
2022/05/19 11:30:22;;;;;;;3.22;2.58;;;;;;;;;;5001822;28;20727;-67
2022/05/19 11:32:53;;;;;;;3.75;2.25;;;;;;;;;;5005170;28;20622;-67
2022/05/19 11:35:47;;;;;;;4.88;2.13;;;;;;;;;;4988115;28;20250;-66
2022/05/19 11:38:27;;;;;;;4.82;2.35;;;;;;;;;;4972037;28;20228;-66
2022/05/19 11:41:05;;;;;;;5.95;2.08;;;;;;;;;;4987829;28;20230;-66
2022/05/19 11:43:45;;;;;;;3.13;2.40;;;;;;;;;;5004375;28;20646;-68
2022/05/19 11:46:19;;;;;;;4.40;2.22;;;;;;;;;;5006320;28;20203;-66
2022/05/19 11:57:39;;;;;;;3.72;1.95;;;;;;;;;;5004647;28;20227;-66
2022/05/19 12:00:07;;;;;;;5.00;3.78;;;;;;;;;;4978467;28;20227;-67
2022/05/19 12:02:41;;;;;;;3.22;2.13;;;;;;;;;;4988902;28;20226;-67
2022/05/19 12:05:17;;;;;;;5.85;3.92;;;;;;;;;;4983641;28;20208;-65
2022/05/19 12:07:50;;;;;;;8.50;4.40;;;;;;;;;;4982625;28;20219;-67
2022/05/19 12:10:20;;;;;;;4.70;3.30;;;;;;;;;;4984168;28;21238;-66
2022/05/19 12:12:51;;;;;;;3.53;2.25;;;;;;;;;;4976367;28;20593;-66
2022/05/19 12:15:24;;;;;;;3.67;2.67;;;;;;;;;;4988779;28;20347;-67
2022/05/19 12:17:56;;;;;;;3.08;2.60;;;;;;;;;;4987920;28;20670;-66
2022/05/19 12:20:33;;;;;;;2.92;2.38;;;;;;;;;;4998325;28;20239;-66
2022/05/19 12:23:24;;;;;;;4.45;2.58;;;;;;;;;;5004551;28;20261;-67
2022/05/19 12:25:53;;;;;;;4.32;2.42;;;;;;;;;;4987551;28;20665;-66
2022/05/19 12:28:20;;;;;;;4.78;2.80;;;;;;;;;;4985056;28;20207;-66
2022/05/19 12:33:50;;;;;;;3.15;2.17;;;;;;;;;;5007866;28;20798;-66
2022/05/19 12:36:25;;;;;;;2.88;1.92;;;;;;;;;;4986364;28;20682;-66
2022/05/19 12:38:53;;;;;;;7.53;2.50;;;;;;;;;;4982249;28;20261;-66
2022/05/19 12:41:23;;;;;;;3.95;2.22;;;;;;;;;;4979485;28;20222;-67
2022/05/19 12:43:53;;;;;;;3.60;2.22;;;;;;;;;;4989825;28;20200;-67
2022/05/19 12:46:41;;;;;;;7.05;2.65;;;;;;;;;;4985963;28;20235;-67
2022/05/19 12:49:15;;;;;;;4.38;3.45;;;;;;;;;;4988101;28;20227;-66
2022/05/19 12:52:03;;;;;;;5.13;4.22;;;;;;;;;;4991084;28;20203;-66
2022/05/19 12:54:33;;;;;;;5.47;3.67;;;;;;;;;;4996379;28;20257;-67
2022/05/19 12:57:21;;;;;;;7.72;3.88;;;;;;;;;;4978536;28;20209;-66
2022/05/19 12:59:50;;;;;;;6.75;4.50;;;;;;;;;;4979943;28;20273;-66
2022/05/19 13:02:39;;;;;;;3.83;2.60;;;;;;;;;;4987131;28;20683;-66
2022/05/19 13:05:18;;;;;;;5.95;2.55;;;;;;;;;;5000435;28;20210;-65
2022/05/19 13:08:07;;;;;;;3.60;2.67;;;;;;;;;;4988617;28;20557;-66
2022/05/19 13:10:37;;;;;;;3.35;2.55;;;;;;;;;;5004556;28;20795;-66
2022/05/19 13:13:25;;;;;;;2.60;2.40;;;;;;;;;;5002214;28;20261;-67
2022/05/19 13:16:00;;;;;;;5.70;2.42;;;;;;;;;;4955258;28;20211;-66
2022/05/19 13:18:31;;;;;;;5.72;2.78;;;;;;;;;;5000166;28;20318;-66
2022/05/19 13:21:06;;;;;;;5.93;3.30;;;;;;;;;;4979313;28;20217;-65
2022/05/19 13:23:37;;;;;;;4.18;2.85;;;;;;;;;;4977131;28;20254;-66
2022/05/19 13:26:06;;;;;;;9.88;3.40;;;;;;;;;;4988098;28;20284;-66
2022/05/19 13:31:21;;;;;;;7.75;2.88;;;;;;;;;;5006898;28;20594;-65
2022/05/19 13:33:50;;;;;;;4.30;3.00;;;;;;;;;;5004197;28;20254;-66
2022/05/19 13:36:27;;;;;;;7.95;3.83;;;;;;;;;;4990260;28;20242;-66
2022/05/19 13:39:12;;;;;;;9.05;3.92;;;;;;;;;;4996182;28;20277;-66
2022/05/19 13:41:52;;;;;;;11.50;4.00;;;;;;;;;;5003204;28;20215;-64
2022/05/19 13:44:33;;;;;;;9.25;4.47;;;;;;;;;;4995975;28;20211;-66
2022/05/19 13:47:00;;;;;;;9.13;3.67;;;;;;;;;;5001700;28;20219;-66
2022/05/19 13:49:28;;;;;;;5.75;3.85;;;;;;;;;;4997395;28;20501;-66
2022/05/19 13:51:57;;;;;;;5.93;3.55;;;;;;;;;;4987972;28;20309;-65
2022/05/19 13:54:39;;;;;;;6.88;3.70;;;;;;;;;;5000112;28;20216;-64
2022/05/19 13:57:09;;;;;;;8.70;4.70;;;;;;;;;;4992890;28;20212;-66
2022/05/19 13:59:37;;;;;;;16.35;6.18;;;;;;;;;;5005016;28;20235;-66
2022/05/19 14:02:08;;;;;;;14.63;5.85;;;;;;;;;;5000140;28;20253;-63
2022/05/19 14:04:38;;;;;;;12.35;5.63;;;;;;;;;;4980138;28;20783;-65
2022/05/19 14:07:06;;;;;;;8.65;5.15;;;;;;;;;;4986765;28;20203;-65
2022/05/19 14:09:53;;;;;;;9.27;4.50;;;;;;;;;;4995681;28;20599;-66
2022/05/19 14:12:21;;;;;;;11.25;4.50;;;;;;;;;;4986865;28;20292;-65
2022/05/19 14:14:49;;;;;;;8.25;4.60;;;;;;;;;;5000273;28;20242;-66
2022/05/19 14:17:16;;;;;;;7.65;4.53;;;;;;;;;;4989071;28;20208;-65
2022/05/19 14:19:45;;;;;;;5.85;4.05;;;;;;;;;;4994044;28;20296;-66
2022/05/19 14:22:15;;;;;;;4.15;3.67;;;;;;;;;;5003338;28;20218;-65
2022/05/19 14:24:45;;;;;;;7.85;3.97;;;;;;;;;;4995007;28;20227;-66
2022/05/19 14:27:13;;;;;;;6.47;4.07;;;;;;;;;;4990356;28;20211;-65
2022/05/19 14:29:42;;;;;;;4.40;4.00;;;;;;;;;;4991246;28;20231;-65
2022/05/19 14:32:24;;;;;;;5.90;3.50;;;;;;;;;;5003799;28;20200;-65
2022/05/19 14:34:51;;;;;;;5.68;3.67;;;;;;;;;;4990577;28;20200;-64
2022/05/19 14:37:21;;;;;;;5.68;4.72;;;;;;;;;;4992709;28;20557;-65
2022/05/19 14:39:52;;;;;;;6.40;4.00;;;;;;;;;;4995314;28;20622;-65
2022/05/19 14:45:19;;;;;;;5.93;4.10;;;;;;;;;;5004902;28;20330;-65
2022/05/19 14:47:52;;;;;;;5.95;3.20;;;;;;;;;;4991940;28;20587;-65
2022/05/19 14:50:29;;;;;;;4.88;3.15;;;;;;;;;;4991250;28;20363;-65
2022/05/19 14:53:02;;;;;;;11.45;4.07;;;;;;;;;;4989881;28;20211;-66
2022/05/19 14:55:36;;;;;;;6.70;4.07;;;;;;;;;;5007754;28;20670;-65
2022/05/19 14:58:15;;;;;;;4.85;3.50;;;;;;;;;;4992560;28;20238;-65
2022/05/19 15:00:43;;;;;;;4.05;3.03;;;;;;;;;;4989799;28;20234;-65
2022/05/19 15:03:10;;;;;;;4.68;3.03;;;;;;;;;;4987187;28;20291;-64
2022/05/19 15:05:39;;;;;;;5.30;3.20;;;;;;;;;;4984613;28;20208;-65
2022/05/19 15:08:08;;;;;;;6.75;3.50;;;;;;;;;;5002758;28;20672;-65
2022/05/19 15:10:35;;;;;;;7.25;3.40;;;;;;;;;;4987201;28;20606;-66
2022/05/19 15:13:04;;;;;;;6.88;3.05;;;;;;;;;;4992128;28;20211;-65
2022/05/19 15:15:33;;;;;;;3.83;2.92;;;;;;;;;;4981289;28;20295;-65
2022/05/19 15:18:01;;;;;;;5.00;3.20;;;;;;;;;;4977455;28;20330;-65
2022/05/19 15:20:29;;;;;;;3.97;3.40;;;;;;;;;;4971136;28;20223;-65
2022/05/19 15:22:57;;;;;;;3.72;3.40;;;;;;;;;;4985119;28;20210;-65
2022/05/19 15:25:26;;;;;;;3.65;3.25;;;;;;;;;;4987488;28;20204;-65
2022/05/19 15:27:58;;;;;;;4.30;3.53;;;;;;;;;;4980292;28;20266;-65
2022/05/19 15:30:27;;;;;;;4.93;3.70;;;;;;;;;;4985457;28;20314;-65
2022/05/19 15:32:55;;;;;;;6.95;3.78;;;;;;;;;;5001873;28;20661;-65
2022/05/19 15:35:23;;;;;;;9.13;4.32;;;;;;;;;;4978117;28;20207;-65
2022/05/19 15:37:50;;;;;;;7.03;4.05;;;;;;;;;;5003333;28;20515;-65
2022/05/19 15:40:19;;;;;;;16.40;5.65;;;;;;;;;;4985915;28;20623;-66
2022/05/19 15:42:54;;;;;;;7.85;3.58;;;;;;;;;;4989630;28;20214;-64
2022/05/19 15:45:22;;;;;;;7.60;3.80;;;;;;;;;;4990440;28;20204;-65